Latest Weather Observations for Viewbank

IDV60801

Issued at 6:32 pm EDT Tuesday 17 October 2017 (issued every 30 minutes, with the page automatically refreshed every 10 minutes)

About weather observations | Map of weather stations | Latest weather observations for VIC | Other Formats
Station Details ID: 086068 Name: VIEWBANK Lat: -37.74 Lon: 145.10 Height: 66.1 m
Data from the previous 72 hours. | See also: Recent months at Viewbank
Date/Time
EDT
Temp
°C
App
Temp
°C
Dew
Point
°C
Rel
Hum
%
Delta-T
°C
Wind Press
QNH
hPa
Press
MSL
hPa
Rain since
9am
mm
Dir  Spd
km/h
Gust
km/h
Spd
kts
Gust
kts
17/06:30pm 27.9 25.9 6.1 25 11.4 NE 6 13 3 7 1020.4 1020.4 0.0
17/06:00pm 28.3 24.6 6.4 25 11.6 E 15 26 8 14 1020.3 1020.3 0.0
17/05:30pm 28.8 26.9 7.4 26 11.5 ENE 7 15 4 8 1020.3 1020.3 0.0
17/05:00pm 29.3 26.8 6.7 24 12.0 NNE 9 19 5 10 1020.4 1020.4 0.0
17/04:30pm 29.7 27.2 8.2 26 11.8 NNW 11 19 6 10 1020.4 1020.4 0.0
17/04:00pm 29.3 25.8 7.2 25 11.9 NNE 15 26 8 14 1020.6 1020.6 0.0
17/03:30pm 29.7 27.4 7.6 25 12.0 N 9 22 5 12 1020.7 1020.7 0.0
17/03:00pm 29.4 27.1 9.0 28 11.3 NE 11 20 6 11 1021.0 1021.0 0.0
17/02:30pm 29.3 26.1 8.4 27 11.5 N 15 32 8 17 1021.3 1021.3 0.0
17/02:00pm 28.8 26.2 7.9 27 11.3 NE 11 20 6 11 1021.6 1021.6 0.0
17/01:30pm 28.4 24.4 6.5 25 11.6 NNE 17 30 9 16 1021.8 1021.8 0.0
17/01:00pm 28.1 25.0 8.9 30 10.5 N 15 28 8 15 1022.1 1022.1 0.0
17/12:30pm 28.2 26.4 10.9 34 9.9 NNE 11 24 6 13 1022.4 1022.4 0.0
17/12:00pm 26.8 23.8 9.2 33 9.7 NE 15 28 8 15 1022.8 1022.8 0.0
17/11:30am 26.4 24.0 10.1 36 9.1 N 13 22 7 12 1023.1 1023.1 0.0
17/11:00am 25.7 22.8 9.5 36 8.9 NNE 15 26 8 14 1023.4 1023.4 0.0
17/10:30am 25.2 23.6 10.3 39 8.3 NE 9 17 5 9 1023.2 1023.2 0.0
17/10:00am 23.9 23.4 12.5 49 6.5 ENE 7 13 4 7 1023.5 1023.5 0.0
17/09:30am 21.8 21.9 12.6 56 5.2 ENE 4 7 2 4 1023.4 1023.4 0.0
17/09:00am 19.6 20.0 12.6 64 3.9 E 2 7 1 4 1023.3 1023.3 0.0
17/08:30am 17.6 17.3 12.7 73 2.7 ENE 6 7 3 4 1023.3 1023.3 0.0
17/08:00am 14.6 15.3 12.1 85 1.4 CALM 0 4 0 2 1023.2 1023.2 0.0
17/07:30am 12.6 12.9 12.1 97 0.3 ENE 2 7 1 4 1022.9 1022.9 0.0
17/07:00am 11.2 11.6 11.2 100 0.0 CALM 0 0 0 0 1022.7 1022.7 0.0
17/06:30am 10.7 10.9 10.5 99 0.1 CALM 0 6 0 3 1022.2 1022.2 0.0
17/06:00am 11.4 11.8 11.2 99 0.1 CALM 0 6 0 3 1022.0 1022.0 0.0
17/05:30am 11.6 12.0 11.4 99 0.1 CALM 0 6 0 3 1022.0 1022.0 0.0
17/05:00am 12.1 11.4 11.9 99 0.1 ENE 7 9 4 5 1022.0 1022.0 0.0
17/04:30am 12.6 12.5 12.1 97 0.3 ENE 4 6 2 3 1021.9 1021.9 0.0
17/04:00am 12.5 12.8 12.3 99 0.1 ENE 2 6 1 3 1021.9 1021.9 0.0
17/03:30am 13.1 13.9 12.5 96 0.3 CALM 0 6 0 3 1022.0 1022.0 0.0
17/03:00am 13.7 13.8 12.6 93 0.6 NE 4 7 2 4 1022.1 1022.1 0.0
17/02:30am 14.3 14.7 12.5 89 1.0 NE 2 7 1 4 1022.2 1022.2 0.0
17/02:00am 14.9 15.0 12.6 86 1.3 NE 4 7 2 4 1022.6 1022.6 0.0
17/01:30am 16.0 16.0 12.4 79 2.0 NE 4 7 2 4 1022.9 1022.9 0.0
17/01:00am 16.5 17.3 12.7 78 2.1 CALM 0 0 0 0 1023.1 1023.1 0.0
17/12:30am 16.5 17.3 12.7 78 2.1 CALM 0 6 0 3 1023.3 1023.3 0.0
17/12:00am 17.1 17.2 12.6 75 2.5 ENE 4 7 2 4 1023.2 1023.2 0.0
 
Date/Time
EDT
Temp
°C
App
Temp
°C
Dew
Point
°C
Rel
Hum
%
Delta-T
°C
Wind Press
QNH
hPa
Press
MSL
hPa
Rain since
9am
mm
Dir  Spd
km/h
Gust
km/h
Spd
kts
Gust
kts
16/11:30pm 18.0 18.8 12.7 71 3.0 CALM 0 0 0 0 1023.1 1023.1 0.0
16/11:00pm 18.9 19.3 12.6 67 3.5 NE 2 7 1 4 1022.9 1022.9 0.0
16/10:30pm 19.9 19.6 12.7 63 4.1 ENE 6 7 3 4 1022.9 1022.9 0.0
16/10:00pm 20.8 20.3 12.5 59 4.7 E 7 9 4 5 1022.9 1022.9 0.0
16/09:30pm 21.2 20.8 12.3 57 5.0 SE 6 7 3 4 1022.8 1022.8 0.0
16/09:00pm 21.5 21.4 12.1 55 5.3 SSE 4 9 2 5 1022.7 1022.7 0.0
16/08:30pm 22.7 22.2 10.8 47 6.6 E 4 13 2 7 1022.3 1022.3 0.0
16/08:00pm 24.4 24.0 9.9 40 7.9 NE 2 6 1 3 1021.9 1021.9 0.0
16/07:30pm 25.8 24.6 9.6 36 8.9 NNW 6 11 3 6 1021.7 1021.7 0.0
16/07:00pm 26.5 24.3 9.4 34 9.4 NNW 11 20 6 11 1021.7 1021.7 0.0
16/06:30pm 26.9 24.6 10.6 36 9.2 NNW 13 20 7 11 1021.5 1021.5 0.0
16/06:00pm 27.0 25.4 10.2 35 9.4 N 9 15 5 8 1021.3 1021.3 0.0
16/05:30pm 27.6 25.4 9.4 32 10.1 N 11 20 6 11 1021.4 1021.4 0.0
16/05:00pm 27.6 25.8 9.4 32 10.1 NNE 9 19 5 10 1021.3 1021.3 0.0
16/04:30pm 27.6 24.9 9.0 31 10.2 NNW 13 22 7 12 1021.5 1021.5 0.0
16/04:00pm 27.7 24.4 9.5 32 10.1 NNW 17 26 9 14 1021.8 1021.8 0.0
16/03:30pm 27.7 25.5 9.5 32 10.1 NNE 11 20 6 11 1022.1 1022.1 0.0
16/03:00pm 27.5 24.3 9.8 33 9.8 NNW 17 28 9 15 1022.4 1022.4 0.0
16/02:30pm 28.1 25.4 10.3 33 10.0 NW 15 26 8 14 1022.6 1022.6 0.0
16/02:00pm 27.9 25.1 10.1 33 10.0 NNE 15 28 8 15 1022.9 1022.9 0.0
16/01:30pm 26.6 24.0 10.7 37 9.0 NE 15 28 8 15 1023.1 1023.1 0.0
16/01:00pm 26.5 23.7 11.4 39 8.6 NNE 17 30 9 16 1023.4 1023.4 0.0
16/12:30pm 26.2 24.5 13.7 46 7.4 N 15 24 8 13 1023.8 1023.8 0.0
16/12:00pm 24.7 22.7 11.6 44 7.4 NNE 13 22 7 12 1024.2 1024.2 0.0
16/11:30am 23.4 23.5 14.4 57 5.3 E 7 15 4 8 1024.6 1024.6 0.0
16/11:00am 20.6 20.5 14.0 66 3.8 ESE 7 11 4 6 1025.2 1025.2 0.0
16/10:30am 17.7 18.1 13.6 77 2.3 E 4 7 2 4 1025.6 1025.6 0.0
16/10:00am 15.1 15.2 14.0 93 0.6 ENE 6 9 3 5 1025.8 1025.8 0.0
16/09:30am 13.2 13.1 13.2 100 0.0 NE 6 9 3 5 1025.9 1025.9 0.0
16/09:00am 11.8 11.2 11.8 100 0.0 ENE 6 9 3 5 1025.9 1025.9 0.0
16/08:30am 11.4 11.1 11.4 100 0.0 ENE 4 9 2 5 1025.9 1025.9 0.0
16/08:00am 11.1 10.1 11.1 100 0.0 ENE 7 9 4 5 1025.7 1025.7 0.0
16/07:30am 11.3 11.0 11.3 100 0.0 ENE 4 9 2 5 1025.3 1025.3 0.0
16/07:00am 11.1 11.5 11.1 100 0.0 CALM 0 2 0 1 1025.3 1025.3 0.0
16/06:30am 11.1 10.3 11.1 100 0.0 NE 6 11 3 6 1024.9 1024.9 0.0
16/06:00am 11.3 11.0 11.3 100 0.0 NW 4 7 2 4 1024.7 1024.7 0.0
16/05:30am 11.3 11.3 11.3 100 0.0 NW 2 6 1 3 1024.7 1024.7 0.0
16/05:00am 11.3 11.7 11.3 100 0.0 CALM 0 0 0 0 1024.5 1024.5 0.0
16/04:30am 11.4 11.8 11.4 100 0.0 CALM 0 6 0 3 1024.4 1024.4 0.0
16/04:00am 11.4 11.1 11.4 100 0.0 SW 4 7 2 4 1024.5 1024.5 0.0
16/03:30am 11.5 11.6 11.5 100 0.0 SW 2 7 1 4 1024.6 1024.6 0.0
16/03:00am 11.5 10.8 11.5 100 0.0 WSW 6 9 3 5 1024.7 1024.7 0.0
16/02:30am 11.6 12.1 11.6 100 0.0 CALM 0 2 0 1 1025.0 1025.0 0.0
16/02:00am 11.6 11.7 11.6 100 0.0 SW 2 7 1 4 1025.2 1025.2 0.0
16/01:30am 11.7 11.5 11.7 100 0.0 W 4 7 2 4 1025.4 1025.4 0.0
16/01:00am 11.4 10.7 11.4 100 0.0 SW 6 9 3 5 1025.3 1025.3 0.0
16/12:30am 11.2 10.3 11.2 100 0.0 SW 7 11 4 6 1025.1 1025.1 0.0
16/12:00am 11.1 10.1 10.9 99 0.1 SW 7 9 4 5 1025.2 1025.2 0.0
 
Date/Time
EDT
Temp
°C
App
Temp
°C
Dew
Point
°C
Rel
Hum
%
Delta-T
°C
Wind Press
QNH
hPa
Press
MSL
hPa
Rain since
9am
mm
Dir  Spd
km/h
Gust
km/h
Spd
kts
Gust
kts
15/11:30pm 11.5 10.8 11.3 99 0.1 WSW 6 7 3 4 1025.2 1025.2 0.0
15/11:00pm 11.8 10.8 11.0 95 0.4 WSW 7 7 4 4 1025.3 1025.3 0.0
15/10:30pm 12.1 11.3 11.0 93 0.6 WSW 6 9 3 5 1025.3 1025.3 0.0
15/10:00pm 12.4 11.3 10.6 89 0.9 SW 7 11 4 6 1025.3 1025.3 0.0
15/09:30pm 13.1 11.7 10.8 86 1.2 SW 9 9 5 5 1025.3 1025.3 0.0
15/09:00pm 14.0 11.8 10.8 81 1.7 SSW 13 20 7 11 1025.0 1025.0 0.0
15/08:30pm 15.2 14.3 11.2 77 2.1 S 7 17 4 9 1024.6 1024.6 0.0
15/08:00pm 15.8 14.5 11.2 74 2.5 S 9 15 5 8 1024.4 1024.4 0.0
15/07:30pm 16.7 14.8 10.5 67 3.3 SSW 11 17 6 9 1023.9 1023.9 0.0
15/07:00pm 17.9 16.3 10.3 61 4.0 S 9 15 5 8 1023.7 1023.7 0.0
15/06:30pm 18.9 16.7 10.7 59 4.4 S 13 20 7 11 1023.5 1023.5 0.0
15/06:00pm 20.0 18.0 11.5 58 4.7 SSW 13 22 7 12 1023.3 1023.3 0.0
15/05:30pm 19.9 18.1 10.9 56 4.9 SSW 11 20 6 11 1023.3 1023.3 0.0
15/05:00pm 20.3 17.5 11.5 57 4.9 SSW 17 26 9 14 1023.3 1023.3 0.0
15/04:30pm 20.6 17.9 11.8 57 4.9 SSW 17 30 9 16 1023.2 1023.2 0.0
15/04:00pm 20.5 17.7 11.4 56 5.0 SW 17 24 9 13 1023.1 1023.1 0.0
15/03:30pm 21.0 18.4 11.9 56 5.1 WSW 17 26 9 14 1023.3 1023.3 0.0
15/03:00pm 20.9 18.6 10.4 51 5.7 SW 13 19 7 10 1023.5 1023.5 0.0
15/02:30pm 20.8 18.2 10.6 52 5.6 SW 15 20 8 11 1023.7 1023.7 0.0
15/02:00pm 20.9 19.8 10.7 52 5.6 SSW 7 20 4 11 1024.0 1024.0 0.0
15/01:30pm 20.2 18.4 9.5 50 5.7 WSW 9 13 5 7 1024.1 1024.1 0.0
15/01:00pm 19.8 18.7 10.0 53 5.2 E 6 9 3 5 1024.5 1024.5 0.0
15/12:30pm 18.8 17.4 9.0 53 5.1 NNW 6 13 3 7 1024.7 1024.7 0.0
15/12:00pm 17.3 15.6 8.4 56 4.5 ESE 7 11 4 6 1025.2 1025.2 0.0
15/11:30am 16.5 15.5 9.0 61 3.9 S 4 9 2 5 1025.5 1025.5 0.0
15/11:00am 15.1 12.9 7.9 62 3.6 ESE 9 13 5 7 1026.0 1026.0 0.0
15/10:30am 13.6 12.0 8.0 69 2.8 E 6 9 3 5 1026.1 1026.1 0.0
15/10:00am 11.9 10.2 7.6 75 2.1 SE 6 11 3 6 1026.2 1026.2 0.0
15/09:30am 11.2 9.6 8.2 82 1.5 ESE 6 9 3 5 1026.3 1026.3 0.0
15/09:00am 9.9 8.6 7.8 87 1.0 ENE 4 6 2 3 1026.2 1026.2 0.0
15/08:30am 9.2 8.4 8.0 92 0.6 NE 2 7 1 4 1026.2 1026.2 0.0
15/08:00am 6.7 4.8 6.6 99 0.0 NE 6 7 3 4 1026.1 1026.1 0.0
15/07:30am 4.9 3.8 4.9 100 0.0 CALM 0 0 0 0 1025.8 1025.8 0.0
15/07:00am 4.5 3.3 4.5 100 0.0 CALM 0 0 0 0 1025.5 1025.5 0.0
15/06:30am 4.5 3.3 4.5 100 0.0 CALM 0 6 0 3 1024.9 1024.9 0.0
15/06:00am 4.4 3.1 4.3 99 0.0 CALM 0 0 0 0 1024.5 1024.5 0.0
15/05:30am 5.1 4.0 5.0 99 0.0 CALM 0 0 0 0 1024.3 1024.3 0.0
15/05:00am 5.4 4.0 5.3 99 0.0 NNE 2 6 1 3 1024.3 1024.3 0.0
15/04:30am 5.6 4.2 5.5 99 0.0 SW 2 6 1 3 1024.1 1024.1 0.0
15/04:00am 6.0 5.1 5.9 99 0.0 CALM 0 0 0 0 1024.1 1024.1 0.0
15/03:30am 6.3 5.4 6.2 99 0.0 CALM 0 0 0 0 1024.3 1024.3 0.0
15/03:00am 7.0 5.9 6.9 99 0.0 SW 2 6 1 3 1024.4 1024.4 0.0
15/02:30am 7.1 6.3 6.5 96 0.3 CALM 0 0 0 0 1024.5 1024.5 0.0
15/02:00am 7.6 6.8 6.5 93 0.5 CALM 0 0 0 0 1024.5 1024.5 0.0
15/01:30am 8.7 6.7 6.3 85 1.1 SW 6 9 3 5 1024.8 1024.8 0.0
15/01:00am 8.9 6.8 6.5 85 1.1 SW 7 9 4 5 1025.1 1025.1 0.0
15/12:30am 9.2 7.2 6.1 81 1.4 SW 6 7 3 4 1025.0 1025.0 0.0
15/12:00am 9.6 7.5 5.8 77 1.7 SW 6 7 3 4 1025.1 1025.1 0.0
 
Date/Time
EDT
Temp
°C
App
Temp
°C
Dew
Point
°C
Rel
Hum
%
Delta-T
°C
Wind Press
QNH
hPa
Press
MSL
hPa
Rain since
9am
mm
Dir  Spd
km/h
Gust
km/h
Spd
kts
Gust
kts
14/11:30pm 10.1 8.1 6.1 76 1.9 SSW 6 9 3 5 1025.0 1025.0 0.0
14/11:00pm 10.2 8.1 5.8 74 2.0 SSW 6 9 3 5 1025.1 1025.1 0.0
14/10:30pm 10.5 8.2 5.5 71 2.3 SSW 7 11 4 6 1025.3 1025.3 0.0
14/10:00pm 11.1 9.6 5.0 66 2.8 SSE 2 7 1 4 1025.2 1025.2 0.0
14/09:30pm 11.4 8.6 5.1 65 2.9 SSW 9 15 5 8 1025.2 1025.2 0.0
14/09:00pm 11.8 9.3 5.0 63 3.1 S 7 13 4 7 1025.3 1025.3 0.0
14/08:30pm 12.1 10.0 6.6 69 2.6 SSW 7 11 4 6 1025.0 1025.0 0.0
14/08:00pm 12.5 9.2 6.5 67 2.8 SSW 13 20 7 11 1024.8 1024.8 0.0
14/07:30pm 13.4 10.1 6.5 63 3.3 SSW 13 20 7 11 1024.6 1024.6 0.0
14/07:00pm 14.7 11.0 6.5 58 4.0 SSW 15 24 8 13 1024.3 1024.3 0.0

Other Formats:

Comma delimited format used in spreadsheet applications
http://www.bom.gov.au/fwo/IDV60801/IDV60801.95874.axf

JavaScript Object Notation format (JSON) in row-major order
http://www.bom.gov.au/fwo/IDV60801/IDV60801.95874.json